Time;durP1;ratioP1;P1;durP2;ratioP2;P2;SDS_P1;SDS_P2;PMS_P1;PMS_P2;Temp;Humidity;BMP_temperature;BMP_pressure;BME280_temperature;BME280_humidity;BME280_pressure;Samples;Min_cycle;Max_cycle;Signal;HPM_P1;HPM_P2
2023/03/19 00:02:00;;;;;;;2.65;2.45;;;20.70;74.20;;;;;;5041570;28;20687;-62
2023/03/19 00:04:28;;;;;;;2.78;2.58;;;20.70;74.20;;;;;;5033597;28;20675;-63
2023/03/19 00:06:55;;;;;;;2.28;1.90;;;20.70;74.10;;;;;;5043265;28;20227;-61
2023/03/19 00:09:22;;;;;;;2.45;2.25;;;20.70;74.90;;;;;;5043951;28;20206;-61
2023/03/19 00:11:49;;;;;;;1.73;1.63;;;20.70;74.10;;;;;;5044522;28;20191;-65
2023/03/19 00:14:17;;;;;;;1.90;1.70;;;20.70;74.10;;;;;;5043177;28;20202;-64
2023/03/19 00:16:43;;;;;;;2.47;2.28;;;20.70;74.00;;;;;;5050941;28;20246;-62
2023/03/19 00:19:10;;;;;;;2.60;2.00;;;20.70;73.90;;;;;;5041548;28;20202;-65
2023/03/19 00:21:38;;;;;;;2.10;1.75;;;20.70;73.80;;;;;;5041090;28;20218;-66
2023/03/19 00:24:06;;;;;;;2.35;1.88;;;20.70;73.80;;;;;;5044179;28;20196;-67
2023/03/19 00:26:34;;;;;;;3.65;2.72;;;20.70;73.70;;;;;;5043051;28;20215;-61
2023/03/19 00:29:02;;;;;;;2.20;1.95;;;20.70;73.70;;;;;;5044779;28;20200;-66
2023/03/19 00:31:29;;;;;;;4.25;2.40;;;20.70;73.80;;;;;;5042160;28;20233;-61
2023/03/19 00:33:57;;;;;;;2.60;2.22;;;20.70;73.80;;;;;;5035794;28;20207;-62
2023/03/19 00:36:24;;;;;;;2.92;2.25;;;20.70;73.80;;;;;;5042833;28;20260;-65
2023/03/19 00:38:53;;;;;;;2.00;1.80;;;20.70;73.90;;;;;;5044644;28;20195;-61
2023/03/19 00:41:20;;;;;;;3.55;2.53;;;20.70;73.80;;;;;;5036788;28;20202;-64
2023/03/19 00:43:47;;;;;;;2.13;1.92;;;20.60;73.70;;;;;;5044130;28;20207;-62
2023/03/19 00:46:14;;;;;;;2.53;2.20;;;20.60;73.70;;;;;;5043959;28;20226;-62
2023/03/19 00:48:41;;;;;;;2.22;2.03;;;20.60;73.70;;;;;;5036821;28;20967;-61
2023/03/19 00:51:09;;;;;;;2.67;2.08;;;20.60;73.60;;;;;;5047333;28;20648;-63
2023/03/19 00:53:38;;;;;;;2.08;1.88;;;20.60;73.60;;;;;;5043282;28;20191;-62
2023/03/19 00:56:07;;;;;;;2.50;2.30;;;20.60;74.40;;;;;;5046818;28;20572;-61
2023/03/19 00:58:34;;;;;;;1.83;1.65;;;20.60;73.60;;;;;;5041751;28;20637;-63
2023/03/19 01:01:01;;;;;;;2.30;2.10;;;20.60;73.60;;;;;;5048357;28;20192;-62
2023/03/19 01:03:28;;;;;;;2.00;1.90;;;20.60;73.60;;;;;;5039083;28;20207;-66
2023/03/19 01:05:54;;;;;;;2.10;1.73;;;20.60;73.60;;;;;;5045016;28;20199;-61
2023/03/19 01:08:21;;;;;;;2.10;1.90;;;20.60;73.60;;;;;;5043441;28;20663;-63
2023/03/19 01:10:48;;;;;;;2.33;1.80;;;20.60;73.60;;;;;;5036186;28;20649;-65
2023/03/19 01:13:16;;;;;;;3.70;1.83;;;20.60;73.50;;;;;;5040662;28;20200;-61
2023/03/19 01:15:43;;;;;;;1.92;1.75;;;20.50;73.40;;;;;;5040534;28;20199;-61
2023/03/19 01:18:11;;;;;;;2.42;2.20;;;20.50;74.20;;;;;;5049560;28;20212;-66
2023/03/19 01:20:41;;;;;;;3.08;1.95;;;20.50;73.50;;;;;;5046721;28;20219;-65
2023/03/19 01:23:08;;;;;;;2.55;2.30;;;20.50;73.40;;;;;;5041228;28;20437;-64
2023/03/19 01:25:35;;;;;;;2.03;1.80;;;20.50;73.40;;;;;;5043499;28;20208;-62
2023/03/19 01:28:02;;;;;;;2.10;1.90;;;20.50;73.40;;;;;;5040855;28;20802;-64
2023/03/19 01:30:30;;;;;;;2.58;2.28;;;20.50;73.40;;;;;;5035065;28;20201;-61
2023/03/19 01:32:57;;;;;;;1.90;1.80;;;20.50;73.40;;;;;;5040543;28;20655;-61
2023/03/19 01:35:23;;;;;;;4.82;1.77;;;20.50;73.40;;;;;;5044216;28;20526;-61
2023/03/19 01:37:51;;;;;;;1.90;1.70;;;20.50;73.40;;;;;;5047981;28;20567;-61
2023/03/19 01:40:17;;;;;;;2.10;1.90;;;20.50;73.40;;;;;;5041395;28;20643;-61
2023/03/19 01:42:55;;;;;;;2.20;1.95;;;20.40;73.30;;;;;;5044933;28;20210;-62
2023/03/19 01:45:33;;;;;;;2.00;1.80;;;20.40;73.30;;;;;;5045662;28;20203;-62
2023/03/19 01:48:01;;;;;;;1.95;1.83;;;20.40;73.30;;;;;;5042150;28;20706;-62
2023/03/19 01:50:31;;;;;;;2.38;1.80;;;20.40;73.30;;;;;;5042176;28;20226;-61
2023/03/19 01:52:58;;;;;;;2.15;2.05;;;20.40;73.30;;;;;;5041009;28;20196;-65
2023/03/19 01:55:26;;;;;;;2.15;1.95;;;20.40;73.30;;;;;;5039198;28;20199;-61
2023/03/19 01:57:53;;;;;;;2.10;1.90;;;20.40;73.30;;;;;;5045584;28;20262;-61
2023/03/19 02:00:21;;;;;;;1.60;1.50;;;20.40;74.10;;;;;;5046561;28;20187;-62
2023/03/19 02:02:53;;;;;;;2.00;1.80;;;20.40;73.20;;;;;;5043259;28;20230;-66
2023/03/19 02:05:24;;;;;;;2.95;2.28;;;20.40;73.30;;;;;;5042437;28;20192;-61
2023/03/19 02:07:54;;;;;;;1.90;1.80;;;20.40;73.30;;;;;;5045427;28;20683;-61
2023/03/19 02:10:22;;;;;;;1.88;1.77;;;20.40;73.40;;;;;;5042553;28;20223;-61
2023/03/19 02:12:49;;;;;;;2.20;1.90;;;20.40;73.30;;;;;;5045713;28;20652;-61
2023/03/19 02:15:16;;;;;;;2.40;2.03;;;20.40;73.30;;;;;;5041371;28;20204;-68
2023/03/19 02:17:43;;;;;;;1.63;1.50;;;20.30;73.20;;;;;;5046379;28;20626;-61
2023/03/19 02:20:18;;;;;;;2.47;2.28;;;20.30;73.20;;;;;;5047210;28;20698;-60
2023/03/19 02:22:53;;;;;;;2.15;1.75;;;20.30;73.20;;;;;;5042090;28;20233;-61
2023/03/19 02:25:27;;;;;;;4.05;2.63;;;20.30;73.20;;;;;;5045157;28;20211;-68
2023/03/19 02:27:55;;;;;;;2.40;1.80;;;20.30;73.20;;;;;;5045959;28;20247;-60
2023/03/19 02:30:27;;;;;;;2.10;1.90;;;20.30;73.20;;;;;;5044452;28;20199;-60
2023/03/19 02:32:53;;;;;;;2.28;1.95;;;20.30;73.20;;;;;;5042822;28;20196;-60
2023/03/19 02:35:20;;;;;;;1.90;1.70;;;20.30;73.20;;;;;;5044721;28;20382;-60
2023/03/19 02:37:47;;;;;;;1.70;1.60;;;20.30;73.20;;;;;;5045395;28;20565;-68
2023/03/19 02:40:19;;;;;;;1.70;1.60;;;20.30;73.20;;;;;;5038871;28;20199;-59
2023/03/19 02:42:46;;;;;;;2.28;2.08;;;20.20;73.10;;;;;;5037526;28;20441;-60
2023/03/19 02:45:15;;;;;;;2.17;2.00;;;20.20;73.10;;;;;;5049971;28;20210;-64
2023/03/19 02:47:41;;;;;;;2.55;2.35;;;20.20;73.10;;;;;;5043164;28;20693;-62
2023/03/19 02:50:09;;;;;;;1.80;1.70;;;20.20;73.10;;;;;;5047189;28;20566;-62
2023/03/19 02:52:36;;;;;;;3.60;2.13;;;20.20;73.10;;;;;;5043019;28;20663;-69
2023/03/19 02:55:03;;;;;;;1.88;1.77;;;20.20;73.10;;;;;;5051029;28;20198;-64
2023/03/19 02:57:30;;;;;;;2.00;1.40;;;20.20;73.10;;;;;;5044001;28;20222;-61
2023/03/19 02:59:56;;;;;;;1.92;1.70;;;20.20;73.10;;;;;;5043770;28;20200;-63
2023/03/19 03:02:25;;;;;;;1.92;1.70;;;20.20;73.10;;;;;;5045792;28;20200;-64
2023/03/19 03:04:51;;;;;;;2.15;2.05;;;20.20;73.10;;;;;;5048654;28;20199;-69
2023/03/19 03:07:18;;;;;;;1.75;1.65;;;20.20;73.10;;;;;;5051456;28;20631;-60
2023/03/19 03:09:45;;;;;;;1.70;1.50;;;20.20;73.00;;;;;;5047867;28;20200;-62
2023/03/19 03:12:12;;;;;;;1.73;1.60;;;20.20;72.90;;;;;;5050354;28;20203;-62
2023/03/19 03:14:39;;;;;;;1.90;1.80;;;20.20;72.80;;;;;;5044259;28;20222;-62
2023/03/19 03:17:07;;;;;;;2.30;2.10;;;20.20;72.80;;;;;;5048827;28;20199;-63
2023/03/19 03:19:35;;;;;;;1.90;1.52;;;20.20;72.80;;;;;;5047423;28;20223;-62
2023/03/19 03:22:02;;;;;;;2.15;1.95;;;20.20;72.70;;;;;;5050052;28;20211;-60
2023/03/19 03:24:29;;;;;;;1.83;1.52;;;20.20;72.70;;;;;;5048387;28;20199;-63
2023/03/19 03:26:56;;;;;;;2.20;1.90;;;20.20;72.70;;;;;;5046663;28;20210;-59
2023/03/19 03:29:23;;;;;;;2.08;1.90;;;20.20;72.60;;;;;;5039551;28;20211;-61
2023/03/19 03:31:49;;;;;;;2.28;1.83;;;20.20;72.60;;;;;;5050426;28;20207;-64
2023/03/19 03:34:16;;;;;;;1.83;1.65;;;20.20;72.60;;;;;;5041570;28;20269;-65
2023/03/19 03:36:45;;;;;;;2.13;1.90;;;20.20;72.60;;;;;;5046036;28;20191;-62
2023/03/19 03:39:12;;;;;;;1.73;1.60;;;20.20;72.60;;;;;;5047019;28;20227;-62
2023/03/19 03:41:39;;;;;;;2.15;1.95;;;20.20;72.60;;;;;;5048476;28;20192;-66
2023/03/19 03:44:07;;;;;;;1.58;1.48;;;20.10;72.50;;;;;;5041449;28;20254;-62
2023/03/19 03:46:34;;;;;;;1.83;1.50;;;20.10;73.20;;;;;;5045915;28;20254;-63
2023/03/19 03:49:00;;;;;;;1.77;1.67;;;20.10;72.50;;;;;;5051978;28;20718;-62
2023/03/19 03:51:27;;;;;;;1.90;1.80;;;20.10;72.50;;;;;;5044240;28;20223;-65
2023/03/19 03:53:55;;;;;;;3.00;2.53;;;20.10;72.50;;;;;;5045798;28;20188;-62
2023/03/19 03:56:22;;;;;;;2.65;1.92;;;20.10;72.50;;;;;;5047238;28;20203;-67
2023/03/19 03:58:48;;;;;;;2.05;1.95;;;20.10;72.50;;;;;;5047996;28;20204;-62
2023/03/19 04:01:16;;;;;;;1.95;1.75;;;20.10;72.50;;;;;;5042601;28;20219;-66
2023/03/19 04:03:43;;;;;;;1.63;1.50;;;20.10;72.50;;;;;;5036739;28;20191;-61
2023/03/19 04:06:14;;;;;;;3.08;2.05;;;20.10;72.50;;;;;;5049509;28;20196;-62
2023/03/19 04:08:41;;;;;;;2.10;1.90;;;20.10;72.50;;;;;;5038258;28;20273;-64
2023/03/19 04:11:10;;;;;;;2.55;2.05;;;20.10;72.50;;;;;;5044352;28;20198;-63
2023/03/19 04:13:37;;;;;;;2.13;1.90;;;20.10;72.50;;;;;;5042406;28;20206;-66
2023/03/19 04:16:04;;;;;;;1.98;1.67;;;20.10;72.50;;;;;;5049708;28;20682;-64
2023/03/19 04:18:31;;;;;;;1.50;1.40;;;20.00;72.30;;;;;;5042063;28;20548;-62
2023/03/19 04:20:57;;;;;;;1.75;1.60;;;20.00;73.10;;;;;;5049500;28;20204;-64
2023/03/19 04:23:24;;;;;;;2.38;2.17;;;20.00;72.30;;;;;;5050750;28;20238;-61
2023/03/19 04:25:51;;;;;;;2.10;1.90;;;20.00;72.30;;;;;;5050506;28;20298;-61
2023/03/19 04:28:19;;;;;;;2.38;2.17;;;20.00;72.40;;;;;;5039397;28;20226;-64
2023/03/19 04:30:46;;;;;;;2.58;2.33;;;20.00;72.40;;;;;;5048899;28;20234;-62
2023/03/19 04:33:13;;;;;;;1.80;1.70;;;20.00;72.30;;;;;;5045115;28;20192;-61
2023/03/19 04:35:40;;;;;;;2.10;1.85;;;20.00;72.30;;;;;;5049352;28;20206;-64
2023/03/19 04:38:07;;;;;;;2.05;1.65;;;20.00;72.30;;;;;;5048798;28;20229;-63
2023/03/19 04:40:33;;;;;;;2.20;1.90;;;20.00;72.80;;;;;;5044990;28;20580;-61
2023/03/19 04:43:00;;;;;;;1.58;1.48;;;20.00;72.30;;;;;;5048204;28;20200;-66
2023/03/19 04:45:28;;;;;;;2.03;1.70;;;20.00;72.30;;;;;;5041715;28;20200;-62
2023/03/19 04:47:55;;;;;;;2.05;1.85;;;20.00;72.30;;;;;;5049473;28;20226;-63
2023/03/19 04:50:22;;;;;;;2.10;2.00;;;20.00;72.30;;;;;;5044562;28;20198;-64
2023/03/19 04:52:49;;;;;;;1.70;1.60;;;19.90;72.30;;;;;;5048455;28;20566;-61
2023/03/19 04:55:16;;;;;;;2.90;1.80;;;20.00;72.30;;;;;;5042930;28;20602;-65
2023/03/19 04:57:42;;;;;;;2.60;2.20;;;19.90;72.20;;;;;;5044716;28;20202;-61
2023/03/19 05:00:11;;;;;;;1.80;1.48;;;19.90;72.20;;;;;;5046174;28;20674;-68
2023/03/19 05:02:39;;;;;;;2.25;2.10;;;19.90;72.20;;;;;;5040034;28;20666;-64
2023/03/19 05:05:06;;;;;;;2.15;1.73;;;19.90;72.20;;;;;;5045295;28;20203;-65
2023/03/19 05:07:33;;;;;;;2.67;1.92;;;19.90;72.20;;;;;;5047991;28;20226;-63
2023/03/19 05:09:59;;;;;;;1.85;1.65;;;19.90;72.30;;;;;;5045414;28;20261;-62
2023/03/19 05:12:26;;;;;;;1.90;1.80;;;19.90;72.20;;;;;;5045970;28;20210;-67
2023/03/19 05:14:53;;;;;;;2.42;2.22;;;19.90;72.20;;;;;;5043789;28;20224;-63
2023/03/19 05:17:20;;;;;;;1.75;1.65;;;19.90;72.20;;;;;;5047104;28;20564;-67
2023/03/19 05:19:48;;;;;;;2.03;1.88;;;19.90;72.20;;;;;;5043300;28;20250;-62
2023/03/19 05:22:16;;;;;;;2.05;1.85;;;19.90;72.20;;;;;;5032738;28;20235;-62
2023/03/19 05:24:42;;;;;;;2.25;2.05;;;19.90;72.20;;;;;;5039498;28;20204;-63
2023/03/19 05:27:09;;;;;;;3.10;2.55;;;19.90;72.20;;;;;;5043125;28;20196;-62
2023/03/19 05:29:36;;;;;;;2.10;1.90;;;19.90;72.20;;;;;;5040684;28;20227;-61
2023/03/19 05:32:03;;;;;;;1.75;1.65;;;19.90;72.20;;;;;;5047419;28;20199;-62
2023/03/19 05:34:30;;;;;;;1.90;1.80;;;19.90;72.20;;;;;;5040854;28;20195;-61
2023/03/19 05:36:58;;;;;;;1.88;1.75;;;19.80;72.10;;;;;;5044056;28;20199;-62
2023/03/19 05:39:25;;;;;;;2.00;1.80;;;19.90;72.20;;;;;;5045030;28;20202;-65
2023/03/19 05:41:52;;;;;;;1.98;1.70;;;19.90;72.20;;;;;;5045777;28;20218;-65
2023/03/19 05:44:20;;;;;;;2.13;1.73;;;19.80;72.10;;;;;;5044275;28;20237;-63
2023/03/19 05:46:46;;;;;;;1.98;1.77;;;19.80;72.10;;;;;;5038894;28;20199;-65
2023/03/19 05:49:13;;;;;;;1.70;1.60;;;19.80;72.10;;;;;;5040981;28;20231;-65
2023/03/19 05:51:40;;;;;;;1.75;1.65;;;19.80;72.10;;;;;;5044046;28;20192;-63
2023/03/19 05:54:08;;;;;;;2.40;2.20;;;19.80;72.10;;;;;;5045786;28;20690;-62
2023/03/19 05:56:35;;;;;;;2.70;2.50;;;19.80;72.10;;;;;;5048466;28;20192;-62
2023/03/19 05:59:02;;;;;;;2.22;1.63;;;19.80;72.10;;;;;;5041533;28;20192;-66
2023/03/19 06:01:28;;;;;;;3.78;2.05;;;19.80;72.10;;;;;;5038446;28;20200;-65
2023/03/19 06:03:55;;;;;;;2.03;1.92;;;19.80;72.00;;;;;;5043612;28;20571;-62
2023/03/19 06:06:22;;;;;;;2.20;2.00;;;19.80;72.10;;;;;;5043939;28;20199;-62
2023/03/19 06:08:48;;;;;;;1.80;1.52;;;19.80;72.10;;;;;;5050134;28;20215;-61
2023/03/19 06:11:16;;;;;;;2.00;1.80;;;19.80;72.10;;;;;;5043249;28;20218;-61
2023/03/19 06:13:44;;;;;;;2.22;2.03;;;19.80;72.10;;;;;;5043009;28;20195;-61
2023/03/19 06:16:12;;;;;;;1.92;1.80;;;19.80;72.00;;;;;;5040569;28;20214;-64
2023/03/19 06:18:38;;;;;;;1.88;1.77;;;19.80;71.90;;;;;;5039856;28;20204;-61
2023/03/19 06:21:05;;;;;;;2.40;1.90;;;19.80;71.70;;;;;;5044395;28;20191;-62
2023/03/19 06:23:33;;;;;;;2.92;2.25;;;19.90;71.70;;;;;;5047774;28;20234;-63
2023/03/19 06:26:00;;;;;;;1.88;1.52;;;19.90;71.70;;;;;;5048615;28;20196;-62
2023/03/19 06:28:28;;;;;;;1.50;1.40;;;19.90;71.70;;;;;;5043976;28;20226;-62
2023/03/19 06:30:55;;;;;;;1.95;1.85;;;19.90;71.60;;;;;;5047415;28;20202;-62
2023/03/19 06:33:26;;;;;;;2.17;1.98;;;19.90;71.70;;;;;;5040444;28;20203;-62
2023/03/19 06:35:53;;;;;;;1.80;1.70;;;19.90;71.60;;;;;;5046734;28;20199;-66
2023/03/19 06:38:20;;;;;;;2.10;1.90;;;19.90;71.70;;;;;;5047528;28;20678;-62
2023/03/19 06:40:47;;;;;;;2.53;2.33;;;19.90;71.70;;;;;;5036796;28;20195;-62
2023/03/19 06:43:13;;;;;;;2.30;1.90;;;19.90;71.70;;;;;;5042136;28;20638;-64
2023/03/19 06:45:42;;;;;;;1.90;1.80;;;20.00;71.70;;;;;;5037440;28;20199;-62
2023/03/19 06:48:08;;;;;;;2.20;1.60;;;20.00;71.70;;;;;;5043612;28;20216;-62
2023/03/19 06:50:35;;;;;;;1.55;1.45;;;20.00;71.80;;;;;;5044618;28;20195;-64
2023/03/19 06:53:02;;;;;;;1.80;1.60;;;20.00;71.80;;;;;;5043047;28;20203;-62
2023/03/19 06:55:29;;;;;;;1.50;1.40;;;20.00;71.80;;;;;;5040186;28;20227;-61
2023/03/19 06:57:56;;;;;;;1.42;1.33;;;20.00;71.80;;;;;;5041996;28;20592;-63
2023/03/19 07:00:24;;;;;;;1.60;1.50;;;19.90;71.70;;;;;;5042419;28;20825;-62
2023/03/19 07:02:52;;;;;;;2.00;1.65;;;20.00;71.70;;;;;;5040109;28;20224;-62
2023/03/19 07:05:19;;;;;;;1.77;1.65;;;20.00;71.70;;;;;;5043888;28;20187;-63
2023/03/19 07:07:45;;;;;;;2.15;1.85;;;20.00;71.70;;;;;;5043527;28;20195;-63
2023/03/19 07:10:12;;;;;;;1.80;1.65;;;20.00;71.60;;;;;;5037171;28;20219;-63
2023/03/19 07:12:39;;;;;;;2.40;2.05;;;20.00;71.60;;;;;;5041212;28;20191;-64
2023/03/19 07:15:07;;;;;;;2.28;1.90;;;20.10;71.70;;;;;;5040712;28;20206;-68
2023/03/19 07:17:34;;;;;;;2.10;2.00;;;20.10;71.70;;;;;;5040140;28;20850;-63
2023/03/19 07:20:02;;;;;;;2.17;2.00;;;20.10;71.70;;;;;;5039905;28;20630;-62
2023/03/19 07:22:29;;;;;;;1.50;1.40;;;20.10;71.70;;;;;;5040696;28;22226;-61
2023/03/19 07:24:55;;;;;;;1.42;1.20;;;20.10;71.60;;;;;;5034098;28;20204;-66
2023/03/19 07:27:22;;;;;;;1.70;1.60;;;20.10;71.60;;;;;;5040529;28;20206;-63
2023/03/19 07:29:49;;;;;;;2.35;2.13;;;20.10;71.60;;;;;;5043896;28;20223;-60
2023/03/19 07:32:15;;;;;;;2.13;1.95;;;20.20;71.80;;;;;;5046406;28;20196;-66
2023/03/19 07:34:42;;;;;;;1.70;1.60;;;20.20;71.80;;;;;;5038637;28;20199;-61
2023/03/19 07:37:10;;;;;;;1.55;1.40;;;20.20;71.90;;;;;;5046945;28;20197;-61
2023/03/19 07:39:37;;;;;;;1.60;1.50;;;20.20;71.80;;;;;;5049519;28;20199;-62
2023/03/19 07:42:04;;;;;;;1.70;1.60;;;20.20;71.80;;;;;;5046033;28;20670;-65
2023/03/19 07:44:31;;;;;;;3.25;2.15;;;20.20;71.80;;;;;;5051936;28;20203;-61
2023/03/19 07:46:58;;;;;;;1.80;1.70;;;20.20;71.80;;;;;;5043739;28;20196;-67
2023/03/19 07:49:25;;;;;;;1.55;1.45;;;20.20;71.80;;;;;;5039975;28;20224;-63
2023/03/19 07:51:52;;;;;;;1.80;1.70;;;20.20;71.80;;;;;;5048772;28;20203;-71
2023/03/19 07:54:22;;;;;;;1.65;1.55;;;20.20;71.80;;;;;;5035360;28;20204;-65
2023/03/19 07:56:49;;;;;;;1.83;1.45;;;20.20;71.70;;;;;;5042104;28;20282;-61
2023/03/19 07:59:15;;;;;;;1.98;1.77;;;20.20;71.70;;;;;;5040690;28;20203;-62
2023/03/19 08:01:42;;;;;;;6.25;1.65;;;20.20;71.70;;;;;;5032958;28;20191;-61
2023/03/19 08:04:09;;;;;;;1.98;1.80;;;20.20;71.90;;;;;;5039616;28;20192;-61
2023/03/19 08:06:37;;;;;;;1.83;1.65;;;20.20;72.60;;;;;;5045180;28;20208;-67
2023/03/19 08:09:04;;;;;;;2.55;1.60;;;20.20;72.60;;;;;;5046900;28;20224;-67
2023/03/19 08:11:32;;;;;;;1.80;1.70;;;20.30;72.60;;;;;;5037994;28;20211;-70
2023/03/19 08:13:58;;;;;;;1.95;1.85;;;20.30;72.90;;;;;;5043915;28;20207;-67
2023/03/19 08:16:25;;;;;;;3.08;2.10;;;20.30;73.00;;;;;;5041623;28;20205;-65
2023/03/19 08:18:52;;;;;;;2.22;1.73;;;20.20;73.10;;;;;;5049737;28;20208;-65
2023/03/19 08:21:19;;;;;;;2.75;1.90;;;20.10;73.10;;;;;;5042928;28;20203;-66
2023/03/19 08:23:46;;;;;;;2.53;1.85;;;20.00;73.80;;;;;;5051803;28;20192;-65
2023/03/19 08:26:12;;;;;;;2.95;1.83;;;20.00;72.90;;;;;;5046474;28;20194;-66
2023/03/19 08:28:40;;;;;;;3.28;1.70;;;19.90;72.90;;;;;;5049865;28;20321;-65
2023/03/19 08:31:08;;;;;;;3.53;1.77;;;19.90;73.10;;;;;;5051681;28;20200;-65
2023/03/19 08:33:35;;;;;;;2.40;2.20;;;19.90;73.10;;;;;;5046103;28;20199;-66
2023/03/19 08:36:07;;;;;;;3.95;2.00;;;19.90;73.20;;;;;;5041710;28;20196;-65
2023/03/19 08:38:34;;;;;;;3.58;2.28;;;19.90;73.30;;;;;;5039060;28;20200;-66
2023/03/19 08:41:03;;;;;;;3.85;1.92;;;19.90;73.30;;;;;;5045131;28;20189;-66
2023/03/19 08:43:30;;;;;;;3.58;2.40;;;19.90;73.40;;;;;;5042989;28;20214;-65
2023/03/19 08:45:58;;;;;;;2.90;2.00;;;19.90;73.40;;;;;;5044051;28;20204;-65
2023/03/19 08:48:25;;;;;;;4.15;2.33;;;19.80;73.30;;;;;;5041651;28;20199;-65
2023/03/19 08:50:54;;;;;;;2.15;1.95;;;19.80;73.30;;;;;;5039242;28;20188;-65
2023/03/19 08:53:20;;;;;;;3.00;2.17;;;19.70;73.20;;;;;;5035495;28;20203;-65
2023/03/19 08:55:52;;;;;;;2.75;2.30;;;19.70;73.50;;;;;;5038637;28;20242;-65
2023/03/19 08:58:19;;;;;;;3.47;2.28;;;19.70;73.60;;;;;;5041106;28;20670;-63
2023/03/19 09:00:46;;;;;;;3.47;2.15;;;19.70;73.40;;;;;;5040315;28;20206;-64
2023/03/19 09:03:14;;;;;;;2.60;2.03;;;19.80;73.20;;;;;;5037468;28;20199;-64
2023/03/19 09:05:41;;;;;;;3.28;1.92;;;19.80;72.90;;;;;;5043996;28;20544;-62
2023/03/19 09:08:08;;;;;;;5.43;1.90;;;19.90;72.90;;;;;;5047629;28;20206;-63
2023/03/19 09:10:35;;;;;;;2.15;1.85;;;19.90;72.90;;;;;;5050711;28;20235;-64
2023/03/19 09:13:02;;;;;;;3.08;1.95;;;19.90;72.70;;;;;;5045366;28;20624;-65
2023/03/19 09:15:29;;;;;;;1.95;1.50;;;20.00;72.80;;;;;;5046226;28;20192;-63
2023/03/19 09:17:56;;;;;;;3.65;2.30;;;20.00;72.70;;;;;;5047529;28;20279;-63
2023/03/19 09:20:24;;;;;;;2.20;2.00;;;20.00;72.70;;;;;;5046912;28;20683;-64
2023/03/19 09:22:51;;;;;;;2.05;1.48;;;20.00;72.60;;;;;;5038410;28;20220;-63
2023/03/19 09:25:18;;;;;;;2.80;1.90;;;20.00;72.60;;;;;;5047673;28;20220;-64
2023/03/19 09:27:44;;;;;;;3.85;1.40;;;20.00;72.50;;;;;;5046942;28;20191;-63
2023/03/19 09:30:12;;;;;;;1.70;1.60;;;20.10;72.50;;;;;;5043103;28;20250;-64
2023/03/19 09:32:39;;;;;;;2.70;1.88;;;20.10;72.40;;;;;;5042006;28;20192;-65
2023/03/19 09:35:07;;;;;;;1.55;1.45;;;20.10;72.30;;;;;;5043769;28;20227;-62
2023/03/19 09:37:35;;;;;;;2.22;1.52;;;20.10;72.20;;;;;;5043114;28;20235;-63
2023/03/19 09:40:03;;;;;;;1.65;1.35;;;20.10;72.20;;;;;;5040891;28;20195;-62
2023/03/19 09:42:45;;;;;;;2.30;1.65;;;20.20;72.30;;;;;;5042615;28;20215;-61
2023/03/19 09:45:14;;;;;;;1.33;1.10;;;20.20;72.30;;;;;;5044072;28;20270;-64
2023/03/19 09:47:42;;;;;;;2.05;1.55;;;20.20;72.30;;;;;;5043205;28;20579;-66
2023/03/19 09:50:13;;;;;;;2.53;1.58;;;20.20;72.20;;;;;;5040406;28;20328;-66
2023/03/19 09:52:45;;;;;;;3.15;1.30;;;20.30;72.30;;;;;;5041834;28;20196;-64
2023/03/19 09:55:21;;;;;;;2.40;1.88;;;20.30;72.30;;;;;;5040094;28;20199;-67
2023/03/19 09:57:48;;;;;;;1.15;1.05;;;20.30;72.20;;;;;;5040741;28;20206;-63
2023/03/19 10:00:22;;;;;;;1.50;1.40;;;20.30;72.20;;;;;;5039192;28;21566;-64
2023/03/19 10:02:54;;;;;;;1.40;1.30;;;20.30;72.10;;;;;;5032750;28;20210;-65
2023/03/19 10:05:31;;;;;;;1.33;1.10;;;20.30;72.10;;;;;;5038108;28;20961;-65
2023/03/19 10:08:23;;;;;;;1.73;1.60;;;20.30;72.10;;;;;;5035845;28;20219;-63
2023/03/19 10:10:56;;;;;;;4.65;1.48;;;20.30;72.10;;;;;;5037208;28;20626;-63
2023/03/19 10:13:36;;;;;;;1.40;1.25;;;20.40;72.20;;;;;;5039069;28;20198;-63
2023/03/19 10:16:05;;;;;;;1.77;1.63;;;20.40;72.20;;;;;;5046116;28;20290;-65
2023/03/19 10:18:34;;;;;;;1.65;1.50;;;20.40;72.20;;;;;;5037635;28;20253;-63
2023/03/19 10:21:05;;;;;;;1.23;1.13;;;20.40;72.20;;;;;;5037020;28;20373;-63
2023/03/19 10:23:39;;;;;;;2.15;1.83;;;20.40;72.10;;;;;;5046186;28;20306;-63
2023/03/19 10:26:11;;;;;;;1.42;1.33;;;20.40;72.10;;;;;;5038913;28;20195;-64
2023/03/19 10:28:39;;;;;;;8.93;1.83;;;20.40;72.20;;;;;;5041097;28;20227;-62
2023/03/19 10:31:24;;;;;;;7.45;1.73;;;20.40;72.10;;;;;;5044856;28;20243;-63
2023/03/19 10:33:58;;;;;;;1.50;1.10;;;20.40;72.10;;;;;;5038481;28;20228;-65
2023/03/19 10:36:30;;;;;;;5.60;2.15;;;20.40;72.30;;;;;;5043398;28;20205;-56
2023/03/19 10:38:58;;;;;;;4.25;1.77;;;20.40;72.70;;;;;;5042319;28;20203;-58
2023/03/19 10:41:37;;;;;;;3.55;1.48;;;20.40;72.80;;;;;;5033517;28;20191;-57
2023/03/19 10:44:10;;;;;;;35.15;2.80;;;20.40;72.90;;;;;;5036476;28;20191;-54
2023/03/19 10:46:40;;;;;;;8.05;1.90;;;20.40;73.00;;;;;;5028320;28;20218;-63
2023/03/19 10:49:12;;;;;;;6.07;2.45;;;20.40;73.10;;;;;;5035029;28;20192;-69
2023/03/19 10:51:39;;;;;;;1.40;1.15;;;20.40;73.40;;;;;;5044499;28;20211;-65
2023/03/19 10:54:20;;;;;;;2.55;2.35;;;20.40;73.50;;;;;;5039033;28;20843;-61
2023/03/19 10:56:48;;;;;;;5.85;1.63;;;20.40;73.80;;;;;;5038139;28;20610;-67
2023/03/19 10:59:23;;;;;;;2.47;1.67;;;20.40;74.00;;;;;;5044107;28;20196;-65
2023/03/19 11:01:55;;;;;;;4.80;1.42;;;20.40;74.10;;;;;;5042538;28;20667;-61
2023/03/19 11:04:24;;;;;;;2.00;1.60;;;20.40;74.20;;;;;;5045300;28;20239;-57
2023/03/19 11:06:53;;;;;;;4.05;2.20;;;20.50;74.20;;;;;;5047671;28;20261;-59
2023/03/19 11:09:28;;;;;;;2.78;1.63;;;20.50;74.40;;;;;;5042676;28;20200;-56
2023/03/19 11:11:58;;;;;;;2.17;1.98;;;20.60;74.60;;;;;;5045145;28;20194;-55
2023/03/19 11:14:31;;;;;;;3.45;1.85;;;20.60;74.70;;;;;;5046636;28;20204;-58
2023/03/19 11:17:02;;;;;;;2.60;1.30;;;20.60;75.40;;;;;;5043382;28;20242;-59
2023/03/19 11:19:33;;;;;;;3.58;1.80;;;20.60;74.70;;;;;;5046893;28;20203;-55
2023/03/19 11:22:07;;;;;;;2.58;1.45;;;20.70;74.90;;;;;;5048007;28;20223;-52
2023/03/19 11:24:37;;;;;;;8.25;1.98;;;20.70;75.00;;;;;;5045803;28;20205;-58
2023/03/19 11:27:05;;;;;;;2.88;1.45;;;20.70;75.00;;;;;;5047370;28;20196;-60
2023/03/19 11:29:32;;;;;;;1.58;1.30;;;20.80;75.20;;;;;;5046289;28;20660;-54
2023/03/19 11:32:13;;;;;;;1.60;1.48;;;20.80;75.30;;;;;;5049803;28;20200;-57
2023/03/19 11:34:45;;;;;;;3.42;1.40;;;20.80;75.30;;;;;;5045384;28;20253;-62
2023/03/19 11:37:21;;;;;;;1.85;1.75;;;20.80;75.50;;;;;;5049995;28;20188;-55
2023/03/19 11:39:59;;;;;;;2.35;1.92;;;20.80;75.50;;;;;;5043172;28;20568;-60
2023/03/19 11:42:38;;;;;;;2.10;1.58;;;20.80;75.60;;;;;;5043111;28;20203;-60
2023/03/19 11:45:17;;;;;;;1.98;1.30;;;20.80;75.70;;;;;;5041566;28;20218;-63
2023/03/19 11:47:53;;;;;;;1.55;1.40;;;20.80;75.90;;;;;;5046400;28;20222;-57
2023/03/19 11:50:26;;;;;;;12.63;3.28;;;20.80;75.80;;;;;;5046670;28;20222;-58
2023/03/19 11:53:18;;;;;;;1.98;1.80;;;20.80;75.90;;;;;;5047264;28;20797;-56
2023/03/19 11:55:54;;;;;;;1.85;1.35;;;20.80;76.00;;;;;;5048167;28;20207;-61
2023/03/19 11:58:47;;;;;;;1.90;1.63;;;20.80;77.00;;;;;;5045606;28;20196;-55
2023/03/19 12:01:25;;;;;;;2.85;1.95;;;20.80;76.20;;;;;;5039765;28;20207;-54
2023/03/19 12:04:06;;;;;;;1.52;1.30;;;20.90;76.40;;;;;;5051465;28;20195;-61
2023/03/19 12:06:44;;;;;;;2.83;1.60;;;20.90;76.40;;;;;;5046137;28;20206;-62
2023/03/19 12:09:19;;;;;;;1.55;1.30;;;20.90;76.40;;;;;;5047441;28;20598;-61
2023/03/19 12:11:53;;;;;;;2.15;1.13;;;20.90;76.50;;;;;;5047365;28;20686;-67
2023/03/19 12:14:27;;;;;;;1.70;1.45;;;20.90;76.50;;;;;;5043270;28;20222;-62
2023/03/19 12:17:06;;;;;;;1.52;1.30;;;20.90;76.60;;;;;;5035657;28;20196;-63
2023/03/19 12:20:13;;;;;;;1.70;1.25;;;20.90;76.60;;;;;;5045984;28;20203;-62
2023/03/19 12:22:53;;;;;;;1.23;1.13;;;20.90;76.60;;;;;;5045956;28;20222;-63
2023/03/19 12:25:28;;;;;;;2.25;1.83;;;20.90;76.70;;;;;;5042402;28;20659;-61
2023/03/19 12:28:02;;;;;;;1.60;1.35;;;20.90;76.70;;;;;;5049189;28;20207;-56
2023/03/19 12:30:37;;;;;;;2.25;1.35;;;21.00;76.80;;;;;;5048003;28;20231;-59
2023/03/19 12:33:14;;;;;;;4.20;2.00;;;21.00;76.80;;;;;;5047765;28;20647;-53
2023/03/19 12:35:43;;;;;;;1.77;1.60;;;21.00;76.80;;;;;;5052777;28;20192;-62
2023/03/19 12:38:16;;;;;;;1.60;1.20;;;21.00;76.90;;;;;;5042768;28;20195;-58
2023/03/19 12:40:48;;;;;;;1.33;1.23;;;21.00;76.90;;;;;;5038879;28;20195;-56
2023/03/19 12:43:24;;;;;;;1.20;1.10;;;21.00;76.80;;;;;;5043597;28;20248;-57
2023/03/19 12:45:57;;;;;;;1.77;1.45;;;21.00;77.00;;;;;;5043477;28;20198;-60
2023/03/19 12:48:28;;;;;;;2.00;1.55;;;21.10;77.10;;;;;;5039068;28;20540;-66
2023/03/19 12:51:04;;;;;;;1.45;1.35;;;21.10;77.00;;;;;;5038511;28;20787;-60
2023/03/19 12:53:39;;;;;;;1.95;1.30;;;21.10;77.10;;;;;;5038862;28;20202;-66
2023/03/19 12:56:12;;;;;;;2.93;1.50;;;21.10;77.10;;;;;;5042605;28;20200;-59
2023/03/19 12:58:51;;;;;;;4.93;1.35;;;21.10;77.00;;;;;;5039798;28;20888;-64